Time;durP1;ratioP1;P1;durP2;ratioP2;P2;SDS_P1;SDS_P2;PMS_P1;PMS_P2;Temp;Humidity;BMP_temperature;BMP_pressure;BME280_temperature;BME280_humidity;BME280_pressure;Samples;Min_cycle;Max_cycle;Signal;HPM_P1;HPM_P2
2023/04/27 00:01:33;;;;;;;11.40;6.30;;;;;;;1.15;72.87;100565.42;105234;280;38302;-72
2023/04/27 00:04:08;;;;;;;12.20;6.30;;;;;;;1.12;73.13;100567.98;105240;280;38236;-72
2023/04/27 00:06:42;;;;;;;12.80;6.40;;;;;;;1.08;73.21;100572.44;105246;280;38335;-72
2023/04/27 00:09:16;;;;;;;12.90;6.90;;;;;;;1.07;73.40;100571.76;105252;280;38429;-73
2023/04/27 00:11:50;;;;;;;11.40;7.00;;;;;;;1.06;73.46;100574.15;105256;280;38477;-74
2023/04/27 00:14:27;;;;;;;14.40;7.10;;;;;;;1.02;73.48;100572.59;105259;280;38286;-73
2023/04/27 00:17:01;;;;;;;11.90;6.30;;;;;;;0.98;73.46;100569.48;105253;280;39419;-73
2023/04/27 00:19:34;;;;;;;11.10;6.50;;;;;;;0.95;73.63;100573.07;105246;280;38630;-73
2023/04/27 00:22:08;;;;;;;10.60;6.60;;;;;;;0.90;73.44;100572.53;105527;280;38550;-73
2023/04/27 00:24:42;;;;;;;10.60;6.70;;;;;;;0.83;73.88;100571.82;105224;280;40009;-73
2023/04/27 00:27:16;;;;;;;12.90;6.50;;;;;;;0.82;74.01;100573.89;105244;280;38912;-73
2023/04/27 00:29:50;;;;;;;13.50;7.10;;;;;;;0.82;74.12;100572.67;105553;280;39008;-73
2023/04/27 00:32:24;;;;;;;14.60;7.50;;;;;;;0.79;74.24;100574.38;105113;280;188867;-73
2023/04/27 00:34:58;;;;;;;11.20;6.50;;;;;;;0.80;74.29;100576.77;105219;280;38515;-73
2023/04/27 00:37:32;;;;;;;9.90;6.20;;;;;;;0.79;74.37;100577.46;105245;280;38524;-72
2023/04/27 00:40:09;;;;;;;9.70;6.10;;;;;;;0.80;74.40;100575.75;105257;280;38352;-73
2023/04/27 00:42:43;;;;;;;11.10;6.80;;;;;;;0.79;74.36;100576.27;105563;280;38239;-73
2023/04/27 00:45:18;;;;;;;12.00;6.40;;;;;;;0.78;74.48;100579.86;105171;280;188910;-73
2023/04/27 00:47:52;;;;;;;13.10;6.70;;;;;;;0.73;74.54;100581.04;104619;280;915879;-74
2023/04/27 00:50:29;;;;;;;12.30;6.20;;;;;;;0.70;74.64;100582.90;105253;280;39462;-72
2023/04/27 00:53:03;;;;;;;10.80;6.40;;;;;;;0.70;74.84;100586.85;105280;280;39351;-72
2023/04/27 00:55:37;;;;;;;11.40;5.90;;;;;;;0.70;74.93;100587.02;105489;280;39991;-72
2023/04/27 00:58:11;;;;;;;10.80;5.90;;;;;;;0.70;74.97;100587.73;105024;281;38347;-72
2023/04/27 01:00:45;;;;;;;11.00;6.30;;;;;;;0.68;74.78;100586.85;105292;280;39113;-72
2023/04/27 01:03:21;;;;;;;9.90;6.20;;;;;;;0.66;74.99;100590.78;105557;280;38228;-72
2023/04/27 01:05:55;;;;;;;14.30;7.30;;;;;;;0.62;75.10;100596.42;104866;280;913858;-72
2023/04/27 01:08:30;;;;;;;12.20;6.50;;;;;;;0.58;75.18;100597.09;105531;280;38879;-72
2023/04/27 01:11:04;;;;;;;17.20;6.60;;;;;;;0.55;75.32;100595.87;105257;280;38812;-73
2023/04/27 01:13:39;;;;;;;9.80;6.10;;;;;;;0.55;75.40;100596.38;105292;280;39402;-72
2023/04/27 01:16:13;;;;;;;12.20;7.10;;;;;;;0.56;75.32;100596.73;105293;280;40607;-72
2023/04/27 01:18:47;;;;;;;12.50;7.40;;;;;;;0.52;75.37;100600.48;105239;280;38271;-73
2023/04/27 01:21:21;;;;;;;12.10;6.70;;;;;;;0.50;75.41;100600.81;105191;280;39598;-72
2023/04/27 01:23:55;;;;;;;10.50;7.40;;;;;;;0.49;75.55;100604.25;105525;280;39495;-72
2023/04/27 01:26:29;;;;;;;13.30;6.50;;;;;;;0.45;75.51;100605.42;105212;280;38857;-72
2023/04/27 01:29:03;;;;;;;13.10;7.40;;;;;;;0.40;75.55;100609.16;105415;280;175025;-72
2023/04/27 01:31:36;;;;;;;9.50;5.90;;;;;;;0.37;75.71;100612.05;105210;280;39015;-72
2023/04/27 01:34:10;;;;;;;12.90;7.00;;;;;;;0.37;75.79;100610.34;105225;280;38640;-73
2023/04/27 01:36:44;;;;;;;12.80;7.60;;;;;;;0.36;75.94;100607.59;104587;281;584025;-72
2023/04/27 01:39:18;;;;;;;11.80;8.00;;;;;;;0.37;76.20;100607.58;105213;280;38285;-73
2023/04/27 01:41:52;;;;;;;11.40;7.50;;;;;;;0.39;76.32;100604.70;105513;280;38901;-73
2023/04/27 01:44:26;;;;;;;10.60;7.20;;;;;;;0.38;76.21;100604.00;105204;280;38297;-73
2023/04/27 01:47:00;;;;;;;11.40;7.00;;;;;;;0.36;76.16;100607.41;105209;280;39056;-73
2023/04/27 01:49:34;;;;;;;13.20;7.30;;;;;;;0.38;76.12;100607.60;105201;280;38535;-73
2023/04/27 01:52:08;;;;;;;12.10;7.90;;;;;;;0.35;76.16;100608.77;105225;280;38686;-74
2023/04/27 01:54:42;;;;;;;12.00;7.30;;;;;;;0.35;76.36;100612.21;105484;281;39005;-73
2023/04/27 01:57:16;;;;;;;12.70;8.00;;;;;;;0.32;76.45;100612.36;105229;280;39638;-73
2023/04/27 01:59:50;;;;;;;13.90;7.40;;;;;;;0.26;76.20;100616.09;105520;280;39700;-73
2023/04/27 02:02:24;;;;;;;15.00;7.30;;;;;;;0.19;76.20;100618.79;105558;280;38287;-73
2023/04/27 02:04:58;;;;;;;11.70;7.30;;;;;;;0.18;76.32;100620.83;105192;280;38515;-73
2023/04/27 02:07:32;;;;;;;13.60;7.50;;;;;;;0.13;76.35;100617.88;105193;280;40097;-73
2023/04/27 02:10:08;;;;;;;10.90;7.40;;;;;;;0.12;76.64;100619.73;105199;280;38516;-72
2023/04/27 02:12:41;;;;;;;13.10;8.20;;;;;;;0.11;76.60;100618.02;105202;280;39006;-72
2023/04/27 02:15:16;;;;;;;14.20;7.90;;;;;;;0.07;76.63;100614.91;105155;280;39499;-72
2023/04/27 02:17:49;;;;;;;11.60;7.70;;;;;;;0.03;76.77;100613.66;105506;281;39461;-72
2023/04/27 02:20:23;;;;;;;11.60;7.10;;;;;;;0.02;77.01;100610.58;105205;280;38448;-72
2023/04/27 02:22:58;;;;;;;11.30;7.10;;;;;;;0.04;76.92;100609.38;105228;280;38284;-72
2023/04/27 02:25:32;;;;;;;11.80;8.00;;;;;;;0.05;77.10;100611.46;105047;280;38990;-72
2023/04/27 02:28:06;;;;;;;14.20;8.40;;;;;;;0.08;77.21;100612.85;105227;281;38592;-73
2023/04/27 02:30:40;;;;;;;13.50;8.00;;;;;;;0.06;77.09;100612.14;105225;280;38395;-73
2023/04/27 02:33:14;;;;;;;13.60;8.70;;;;;;;0.05;77.50;100613.17;105196;280;39360;-73
2023/04/27 02:35:48;;;;;;;13.00;8.20;;;;;;;0.06;77.74;100615.05;105534;280;39280;-74
2023/04/27 02:38:22;;;;;;;10.20;7.10;;;;;;;0.07;77.65;100613.52;105184;280;39637;-74
2023/04/27 02:40:58;;;;;;;12.10;7.60;;;;;;;0.10;77.64;100617.16;105202;280;38253;-73
2023/04/27 02:43:33;;;;;;;12.30;7.40;;;;;;;0.14;77.72;100622.35;105215;280;38470;-73
2023/04/27 02:46:07;;;;;;;13.80;8.30;;;;;;;0.20;77.97;100624.62;105197;281;38429;-73
2023/04/27 02:48:41;;;;;;;14.10;8.50;;;;;;;0.18;77.72;100627.01;105524;280;39701;-73
2023/04/27 02:51:15;;;;;;;15.30;8.10;;;;;;;0.17;77.86;100627.86;105543;281;38374;-73
2023/04/27 02:53:49;;;;;;;13.90;8.60;;;;;;;0.12;77.52;100624.89;104638;281;914185;-72
2023/04/27 02:56:23;;;;;;;12.40;7.50;;;;;;;0.08;77.68;100624.84;105093;281;38765;-72
2023/04/27 02:58:57;;;;;;;12.40;8.00;;;;;;;0.07;77.92;100624.15;105542;280;39442;-72
2023/04/27 03:01:31;;;;;;;10.40;7.00;;;;;;;0.07;78.03;100624.15;105250;280;39781;-72
2023/04/27 03:04:08;;;;;;;12.40;7.90;;;;;;;0.04;77.84;100624.66;105089;281;38481;-73
2023/04/27 03:06:42;;;;;;;14.40;8.00;;;;;;;0.00;77.86;100623.08;105222;280;39657;-74
2023/04/27 03:09:16;;;;;;;13.50;7.50;;;;;;;-0.02;78.08;100624.45;105231;280;38495;-73
2023/04/27 03:11:50;;;;;;;11.20;7.40;;;;;;;-0.05;77.93;100626.80;105208;280;38800;-72
2023/04/27 03:14:24;;;;;;;11.60;7.30;;;;;;;-0.06;78.05;100625.77;105246;280;39628;-73
2023/04/27 03:16:58;;;;;;;12.40;7.60;;;;;;;-0.02;78.19;100626.84;105236;280;39893;-73
2023/04/27 03:19:32;;;;;;;15.30;9.60;;;;;;;0.00;78.59;100629.27;105308;280;39481;-73
2023/04/27 03:22:06;;;;;;;11.70;7.90;;;;;;;0.05;78.58;100631.88;105233;280;38928;-73
2023/04/27 03:24:41;;;;;;;12.70;8.60;;;;;;;0.04;78.61;100624.66;105214;280;39544;-73
2023/04/27 03:27:15;;;;;;;11.80;7.80;;;;;;;0.03;78.51;100623.45;105281;280;38588;-73
2023/04/27 03:29:49;;;;;;;12.90;7.80;;;;;;;0.05;78.51;100628.77;105055;281;39615;-72
2023/04/27 03:32:23;;;;;;;12.60;8.30;;;;;;;0.07;78.59;100627.09;105276;280;38250;-72
2023/04/27 03:34:57;;;;;;;13.40;7.70;;;;;;;0.08;78.60;100630.17;105257;280;38873;-72
2023/04/27 03:37:33;;;;;;;13.40;8.30;;;;;;;0.10;78.84;100635.02;105541;280;39455;-72
2023/04/27 03:40:08;;;;;;;14.50;9.40;;;;;;;0.14;78.93;100634.34;105253;280;39409;-74
2023/04/27 03:42:42;;;;;;;16.60;9.60;;;;;;;0.16;79.14;100642.61;105277;280;38510;-74
2023/04/27 03:45:18;;;;;;;15.50;9.30;;;;;;;0.21;79.32;100647.96;105429;280;190822;-72
2023/04/27 03:47:51;;;;;;;15.50;9.30;;;;;;;0.25;79.23;100644.56;105527;280;39912;-72
2023/04/27 03:50:26;;;;;;;13.20;7.70;;;;;;;0.30;79.38;100647.17;105225;280;38545;-72
2023/04/27 03:53:00;;;;;;;12.20;8.60;;;;;;;0.36;79.35;100656.84;105062;281;38230;-72
2023/04/27 03:55:34;;;;;;;17.20;9.70;;;;;;;0.42;79.60;100661.17;105708;280;39403;-74
2023/04/27 03:58:09;;;;;;;17.40;10.30;;;;;;;0.51;79.81;100666.56;105315;280;38281;-74
2023/04/27 04:00:43;;;;;;;17.90;11.10;;;;;;;0.72;80.36;100665.69;105282;280;38858;-73
2023/04/27 04:03:17;;;;;;;19.30;10.80;;;;;;;1.45;82.78;100665.55;105675;280;38835;-73
2023/04/27 04:05:51;;;;;;;21.40;11.30;;;;;;;2.19;84.00;100664.52;105303;279;38358;-74
2023/04/27 04:08:25;;;;;;;20.80;10.70;;;;;;;2.67;83.24;100657.28;105710;279;38610;-74
2023/04/27 04:10:59;;;;;;;19.20;11.00;;;;;;;2.88;81.05;100654.67;105249;280;38356;-73
2023/04/27 04:13:34;;;;;;;23.90;11.90;;;;;;;2.96;79.48;100658.44;105303;280;38487;-73
2023/04/27 04:16:10;;;;;;;17.10;10.90;;;;;;;3.06;78.95;100662.21;105332;279;39628;-73
2023/04/27 04:18:44;;;;;;;21.20;12.50;;;;;;;3.14;78.36;100659.93;105278;280;39639;-73
2023/04/27 04:21:17;;;;;;;17.80;11.60;;;;;;;3.24;77.86;100661.29;105677;280;39479;-73
2023/04/27 04:23:51;;;;;;;20.80;12.30;;;;;;;3.38;77.71;100660.73;105182;280;174902;-73
2023/04/27 04:26:26;;;;;;;19.40;12.30;;;;;;;3.45;77.32;100664.15;105217;280;38464;-73
2023/04/27 04:29:00;;;;;;;23.00;11.80;;;;;;;3.49;76.80;100659.13;105728;279;38357;-73
2023/04/27 04:31:34;;;;;;;19.00;10.80;;;;;;;3.61;77.04;100660.80;105322;280;39843;-73
2023/04/27 04:34:08;;;;;;;19.40;11.00;;;;;;;3.99;77.32;100661.79;105286;279;38836;-73
2023/04/27 04:36:43;;;;;;;16.40;11.00;;;;;;;4.51;77.80;100658.98;105700;279;38285;-73
2023/04/27 04:39:17;;;;;;;20.30;11.90;;;;;;;5.28;79.22;100659.91;105323;279;39683;-73
2023/04/27 04:41:51;;;;;;;16.50;10.40;;;;;;;6.51;80.31;100653.85;105278;280;38797;-73
2023/04/27 04:44:25;;;;;;;17.90;10.10;;;;;;;7.66;76.08;100655.30;105725;280;39931;-74
2023/04/27 04:47:00;;;;;;;18.60;10.00;;;;;;;8.73;72.44;100658.89;105292;280;38772;-73
2023/04/27 04:49:34;;;;;;;17.10;9.90;;;;;;;9.73;68.57;100655.23;105295;280;39365;-73
2023/04/27 04:52:09;;;;;;;15.50;9.40;;;;;;;10.58;64.31;100654.31;105301;280;39332;-73
2023/04/27 04:54:44;;;;;;;15.70;9.50;;;;;;;11.43;60.58;100655.34;105321;280;38228;-74
2023/04/27 04:57:18;;;;;;;17.10;8.90;;;;;;;12.18;58.21;100657.20;105717;280;38260;-75
2023/04/27 04:59:53;;;;;;;17.00;9.60;;;;;;;12.77;54.78;100659.13;105715;280;39457;-74
2023/04/27 05:02:26;;;;;;;17.20;9.70;;;;;;;13.32;53.22;100658.88;105302;280;39183;-74
2023/04/27 05:05:03;;;;;;;16.50;9.70;;;;;;;13.87;50.67;100657.77;105324;280;38725;-79
2023/04/27 05:07:38;;;;;;;13.70;9.00;;;;;;;14.18;48.77;100658.91;105315;276;38252;-73
2023/04/27 05:10:12;;;;;;;16.70;9.80;;;;;;;14.28;47.55;100665.96;105331;280;39406;-73
2023/04/27 05:12:46;;;;;;;11.70;8.60;;;;;;;14.15;46.56;100671.18;105717;280;38282;-74
2023/04/27 05:15:20;;;;;;;12.70;8.70;;;;;;;14.26;46.24;100670.27;105324;280;39635;-74
2023/04/27 05:17:54;;;;;;;13.10;8.70;;;;;;;14.35;45.60;100673.91;104669;279;899564;-74
2023/04/27 05:20:28;;;;;;;12.70;9.00;;;;;;;14.45;45.32;100680.20;105333;280;39392;-74
2023/04/27 05:23:02;;;;;;;16.20;9.60;;;;;;;14.52;44.39;100678.15;105283;280;38354;-72
2023/04/27 05:25:40;;;;;;;14.20;8.90;;;;;;;14.63;43.97;100674.83;105708;280;38494;-73
2023/04/27 05:28:14;;;;;;;16.00;9.10;;;;;;;14.80;43.27;100677.13;105305;280;39850;-73
2023/04/27 05:30:48;;;;;;;11.50;8.80;;;;;;;15.00;43.52;100677.16;105299;280;38276;-73
2023/04/27 05:33:22;;;;;;;15.00;8.90;;;;;;;15.60;42.87;100672.78;105324;280;38234;-73
2023/04/27 05:35:56;;;;;;;14.10;9.20;;;;;;;15.94;41.66;100679.02;105708;280;38264;-73
2023/04/27 05:38:30;;;;;;;13.90;8.60;;;;;;;15.92;41.01;100679.11;105217;280;41333;-73
2023/04/27 05:41:04;;;;;;;11.30;8.10;;;;;;;16.03;40.08;100677.14;105212;280;38219;-74
2023/04/27 05:43:38;;;;;;;12.90;8.30;;;;;;;16.18;39.84;100677.64;105273;288;38692;-75
2023/04/27 05:46:15;;;;;;;14.80;8.00;;;;;;;16.50;39.95;100681.30;105720;280;39423;-74
2023/04/27 05:48:49;;;;;;;11.90;8.10;;;;;;;16.78;39.21;100680.58;105710;280;38350;-74
2023/04/27 05:51:23;;;;;;;13.30;8.30;;;;;;;17.31;39.12;100679.50;105209;280;38374;-74
2023/04/27 05:53:58;;;;;;;13.40;8.10;;;;;;;17.97;37.48;100675.39;105309;280;39424;-74
2023/04/27 05:56:32;;;;;;;10.20;7.90;;;;;;;18.39;36.42;100674.30;105285;280;39406;-74
2023/04/27 05:59:06;;;;;;;11.30;8.00;;;;;;;18.88;35.52;100672.75;105320;280;38500;-74
2023/04/27 06:01:41;;;;;;;12.20;7.70;;;;;;;19.32;34.85;100677.86;105722;280;38504;-74
2023/04/27 06:04:15;;;;;;;12.70;7.60;;;;;;;19.61;34.48;100677.47;105331;280;38428;-74
2023/04/27 06:06:49;;;;;;;11.60;7.50;;;;;;;20.14;33.70;100677.95;105710;280;38723;-74
2023/04/27 06:09:24;;;;;;;12.60;7.90;;;;;;;20.74;32.55;100679.81;105319;280;40035;-74
2023/04/27 06:11:59;;;;;;;10.20;8.30;;;;;;;20.99;31.83;100679.17;105711;280;38441;-74
2023/04/27 06:14:34;;;;;;;10.30;7.40;;;;;;;21.26;31.48;100678.19;105306;280;39433;-75
2023/04/27 06:17:08;;;;;;;11.30;8.00;;;;;;;21.82;30.62;100676.39;105285;280;38662;-75
2023/04/27 06:19:43;;;;;;;9.50;7.60;;;;;;;22.35;29.65;100673.88;105239;280;171225;-73
2023/04/27 06:22:17;;;;;;;11.10;6.90;;;;;;;22.60;28.85;100674.84;105201;280;38454;-73
2023/04/27 06:24:51;;;;;;;11.40;7.40;;;;;;;22.74;28.52;100674.02;105333;280;38368;-73
2023/04/27 06:27:26;;;;;;;9.70;7.00;;;;;;;22.83;27.91;100672.05;105331;280;38999;-73
2023/04/27 06:30:01;;;;;;;9.60;7.00;;;;;;;23.08;27.94;100675.64;105347;280;38899;-73
2023/04/27 06:32:36;;;;;;;9.50;7.20;;;;;;;23.45;27.92;100678.14;105299;280;39404;-73
2023/04/27 06:35:12;;;;;;;11.40;7.40;;;;;;;23.75;27.44;100676.74;105318;280;38228;-73
2023/04/27 06:37:46;;;;;;;9.90;7.40;;;;;;;23.81;26.93;100682.33;105290;280;38900;-73
2023/04/27 06:40:20;;;;;;;10.30;7.50;;;;;;;23.87;26.79;100681.73;105315;280;38494;-73
2023/04/27 06:42:54;;;;;;;9.30;7.00;;;;;;;23.98;26.49;100681.33;105729;280;38144;-73
2023/04/27 06:45:28;;;;;;;10.60;7.20;;;;;;;24.21;26.35;100684.53;105294;280;38347;-73
2023/04/27 06:48:03;;;;;;;12.50;7.60;;;;;;;24.57;25.29;100685.44;105299;280;38618;-73
2023/04/27 06:50:37;;;;;;;10.00;7.10;;;;;;;24.47;25.19;100685.21;105323;280;38609;-73
2023/04/27 06:53:11;;;;;;;10.90;7.20;;;;;;;24.17;25.93;100681.67;105755;280;39260;-73
2023/04/27 06:55:44;;;;;;;11.00;7.40;;;;;;;23.73;25.86;100685.15;105319;284;38390;-74
2023/04/27 06:58:18;;;;;;;9.40;6.50;;;;;;;23.14;26.89;100685.08;105299;280;38259;-75
2023/04/27 07:00:52;;;;;;;14.10;7.40;;;;;;;22.82;27.24;100685.14;105284;280;39361;-74
2023/04/27 07:03:26;;;;;;;8.40;6.80;;;;;;;22.53;27.57;100688.25;105321;280;39428;-74
2023/04/27 07:06:00;;;;;;;12.50;7.20;;;;;;;22.24;27.36;100687.23;105205;280;171190;-74
2023/04/27 07:08:35;;;;;;;11.50;7.50;;;;;;;21.90;27.67;100689.33;105322;280;38485;-73
2023/04/27 07:11:09;;;;;;;11.20;8.20;;;;;;;21.84;28.52;100688.02;105344;280;38821;-73
2023/04/27 07:13:43;;;;;;;9.90;7.40;;;;;;;21.97;28.27;100693.84;105322;280;38217;-73
2023/04/27 07:16:19;;;;;;;12.60;7.80;;;;;;;22.08;28.87;100694.91;105685;280;39949;-74
2023/04/27 07:18:53;;;;;;;12.70;8.30;;;;;;;22.59;28.76;100699.98;105309;280;38987;-74
2023/04/27 07:21:27;;;;;;;11.00;8.00;;;;;;;23.30;27.60;100694.02;105308;280;39558;-74
2023/04/27 07:24:02;;;;;;;10.70;7.40;;;;;;;23.59;26.98;100692.05;105194;280;39404;-74
2023/04/27 07:26:37;;;;;;;9.80;6.90;;;;;;;23.82;26.99;100698.75;105336;279;38253;-74
2023/04/27 07:29:12;;;;;;;8.60;6.70;;;;;;;24.13;26.30;100701.68;105341;280;38729;-73
2023/04/27 07:31:46;;;;;;;9.80;7.10;;;;;;;24.45;26.50;100697.55;105311;280;39546;-73
2023/04/27 07:34:19;;;;;;;9.40;7.20;;;;;;;24.96;26.05;100702.34;105291;280;38266;-74
2023/04/27 07:36:54;;;;;;;8.40;6.50;;;;;;;25.37;25.16;100703.80;105309;280;38315;-74
2023/04/27 07:39:28;;;;;;;8.10;6.30;;;;;;;25.69;24.90;100698.44;105289;280;38278;-74
2023/04/27 07:42:03;;;;;;;9.20;6.70;;;;;;;25.74;23.73;100697.50;105314;280;38377;-74
2023/04/27 07:44:37;;;;;;;8.70;6.00;;;;;;;25.80;24.29;100694.75;105101;280;173538;-75
2023/04/27 07:47:12;;;;;;;9.20;6.20;;;;;;;25.82;23.65;100698.98;105308;279;39262;-75
2023/04/27 07:49:47;;;;;;;9.90;6.30;;;;;;;25.92;24.45;100695.13;105320;280;38451;-75
2023/04/27 07:52:21;;;;;;;8.00;5.90;;;;;;;26.22;23.76;100696.27;105707;279;38883;-75
2023/04/27 07:54:55;;;;;;;9.40;5.80;;;;;;;26.27;23.27;100692.05;105190;280;170893;-75
2023/04/27 07:57:30;;;;;;;8.20;6.30;;;;;;;26.21;23.80;100693.72;105692;280;39711;-75
2023/04/27 08:00:07;;;;;;;10.00;5.90;;;;;;;26.15;23.23;100693.95;105715;280;39704;-74
2023/04/27 08:02:41;;;;;;;9.60;6.20;;;;;;;25.83;22.84;100693.60;105712;280;38643;-74
2023/04/27 08:05:15;;;;;;;9.60;5.50;;;;;;;25.99;23.94;100697.66;105305;279;38398;-74
2023/04/27 08:07:52;;;;;;;9.60;5.90;;;;;;;26.42;23.49;100693.80;105716;280;38361;-73
2023/04/27 08:10:26;;;;;;;7.70;5.30;;;;;;;26.55;23.21;100696.29;105709;280;38277;-75
2023/04/27 08:13:00;;;;;;;8.10;5.50;;;;;;;25.93;22.67;100694.17;105702;280;38565;-75
2023/04/27 08:15:34;;;;;;;7.10;5.30;;;;;;;25.11;23.65;100698.77;105320;280;38463;-75
2023/04/27 08:18:08;;;;;;;7.40;5.60;;;;;;;24.56;23.81;100702.65;105309;280;39880;-74
2023/04/27 08:20:43;;;;;;;6.60;5.90;;;;;;;23.52;24.53;100704.02;105363;280;38500;-73
2023/04/27 08:23:18;;;;;;;8.50;5.50;;;;;;;22.60;25.60;100708.61;105209;280;39270;-73
2023/04/27 08:25:52;;;;;;;4.60;4.10;;;;;;;22.10;26.16;100710.73;105314;280;38270;-76
2023/04/27 08:28:27;;;;;;;4.30;2.90;;;;;;;21.52;26.04;100708.09;105727;280;38245;-76
2023/04/27 08:31:01;;;;;;;5.30;2.90;;;;;;;21.04;26.28;100708.46;105684;280;38562;-73
2023/04/27 08:33:37;;;;;;;5.00;2.60;;;;;;;20.77;26.39;100709.64;105270;280;39818;-73
2023/04/27 08:36:12;;;;;;;4.40;2.80;;;;;;;20.19;26.50;100709.41;105335;280;39415;-73
2023/04/27 08:38:46;;;;;;;5.20;3.70;;;;;;;19.62;27.19;100708.72;105194;280;38901;-74
2023/04/27 08:41:23;;;;;;;6.20;3.80;;;;;;;19.27;28.24;100711.70;105337;279;38315;-74
2023/04/27 08:43:57;;;;;;;9.40;4.60;;;;;;;19.26;28.93;100707.47;105289;280;38236;-73
2023/04/27 08:46:31;;;;;;;7.20;3.90;;;;;;;18.90;28.82;100712.98;105323;280;38267;-73
2023/04/27 08:49:06;;;;;;;9.20;3.30;;;;;;;18.37;29.45;100710.98;105230;280;38234;-73
2023/04/27 08:51:40;;;;;;;7.40;3.40;;;;;;;17.89;29.60;100714.92;105698;280;38509;-73
2023/04/27 08:54:14;;;;;;;5.80;3.30;;;;;;;17.36;30.06;100717.31;105703;283;38245;-75
2023/04/27 08:56:48;;;;;;;5.00;3.10;;;;;;;16.93;30.72;100720.02;105312;280;38629;-75
2023/04/27 08:59:22;;;;;;;4.80;2.50;;;;;;;16.62;31.72;100720.23;105307;280;39387;-73
2023/04/27 09:01:56;;;;;;;5.40;3.20;;;;;;;16.40;32.05;100717.63;105688;280;38729;-73
2023/04/27 09:04:39;;;;;;;6.50;3.00;;;;;;;16.35;32.36;100715.45;105711;279;39418;-74
2023/04/27 09:07:17;;;;;;;4.90;2.60;;;;;;;16.25;32.39;100720.20;105278;280;38423;-74
2023/04/27 09:09:51;;;;;;;5.20;2.90;;;;;;;16.03;32.61;100721.27;105316;279;38780;-74
2023/04/27 09:12:25;;;;;;;4.90;2.70;;;;;;;15.72;32.75;100724.70;105328;279;38557;-74
2023/04/27 09:15:05;;;;;;;4.50;2.40;;;;;;;15.42;32.77;100728.20;105709;279;38643;-74
2023/04/27 09:17:38;;;;;;;3.20;2.70;;;;;;;15.13;32.99;100726.00;105347;279;38218;-73
2023/04/27 09:20:17;;;;;;;3.40;2.80;;;;;;;14.90;33.21;100731.23;105308;279;39396;-73
2023/04/27 09:22:54;;;;;;;4.20;2.40;;;;;;;14.73;34.07;100731.73;105304;280;38269;-73
2023/04/27 09:25:30;;;;;;;7.00;3.10;;;;;;;14.64;34.45;100730.06;105297;280;38324;-75
2023/04/27 09:28:04;;;;;;;4.70;2.90;;;;;;;14.56;34.39;100726.80;105291;280;37470;-75
2023/04/27 09:30:38;;;;;;;4.40;2.80;;;;;;;14.52;34.96;100724.20;105693;280;39359;-75
2023/04/27 09:33:13;;;;;;;7.30;2.80;;;;;;;14.49;35.31;100724.81;105313;280;38348;-74
2023/04/27 09:35:47;;;;;;;4.60;2.90;;;;;;;14.51;35.42;100724.04;104773;280;752537;-73
2023/04/27 09:38:21;;;;;;;6.80;2.80;;;;;;;14.48;35.37;100724.54;105700;280;38585;-73
2023/04/27 09:40:55;;;;;;;4.90;2.60;;;;;;;14.41;35.55;100720.77;105355;280;38259;-73
2023/04/27 09:43:30;;;;;;;7.60;2.90;;;;;;;14.39;36.00;100718.94;104581;280;915527;-75
2023/04/27 09:46:05;;;;;;;4.40;2.70;;;;;;;14.38;36.20;100716.89;105213;280;174148;-73
2023/04/27 09:48:41;;;;;;;3.40;2.40;;;;;;;14.35;35.95;100715.81;105320;280;38578;-75
2023/04/27 09:51:16;;;;;;;12.30;6.70;;;;;;;14.34;36.41;100720.61;105215;280;39578;-74
2023/04/27 09:53:56;;;;;;;7.40;3.60;;;;;;;14.39;36.67;100719.14;105289;280;38279;-74
2023/04/27 09:56:33;;;;;;;4.20;2.90;;;;;;;14.46;36.39;100722.67;105321;280;39450;-74
2023/04/27 09:59:30;;;;;;;5.40;2.50;;;;;;;14.45;36.27;100723.22;105701;280;38572;-73
2023/04/27 10:02:05;;;;;;;3.90;2.40;;;;;;;14.45;36.02;100726.25;105301;280;40070;-73
2023/04/27 10:04:57;;;;;;;6.30;2.50;;;;;;;14.38;35.70;100725.88;105362;280;38263;-73
2023/04/27 10:07:31;;;;;;;6.70;2.50;;;;;;;14.28;35.50;100727.02;105285;280;39468;-73
2023/04/27 10:10:06;;;;;;;6.50;2.80;;;;;;;14.20;36.06;100724.97;105322;280;39167;-73
2023/04/27 10:12:40;;;;;;;3.80;2.30;;;;;;;14.20;36.63;100725.48;105318;280;38679;-73
2023/04/27 10:15:18;;;;;;;3.40;2.40;;;;;;;14.23;36.64;100726.75;105283;280;38663;-73
2023/04/27 10:17:54;;;;;;;6.80;3.30;;;;;;;14.29;36.72;100724.36;105725;280;38610;-72
2023/04/27 10:20:36;;;;;;;3.90;2.10;;;;;;;14.33;35.99;100725.91;105703;280;39297;-74
2023/04/27 10:23:09;;;;;;;3.80;1.80;;;;;;;14.33;36.20;100730.13;105294;280;39383;-74
2023/04/27 10:25:44;;;;;;;3.90;2.30;;;;;;;14.39;36.31;100728.45;105705;280;38560;-73
2023/04/27 10:28:20;;;;;;;5.10;2.10;;;;;;;14.45;36.20;100724.82;105745;280;39679;-73
2023/04/27 10:30:54;;;;;;;4.70;2.10;;;;;;;14.65;36.02;100718.62;105351;280;39363;-75
2023/04/27 10:33:27;;;;;;;5.60;2.20;;;;;;;14.89;35.90;100716.52;105306;280;38609;-74
2023/04/27 10:36:03;;;;;;;3.90;2.20;;;;;;;15.11;35.85;100715.42;105675;280;38283;-74
2023/04/27 10:38:43;;;;;;;5.00;2.30;;;;;;;15.31;35.57;100718.77;104684;280;900276;-74
2023/04/27 10:41:18;;;;;;;4.10;2.50;;;;;;;15.58;36.05;100719.27;105326;280;38278;-73
2023/04/27 10:43:52;;;;;;;4.30;2.30;;;;;;;15.84;35.22;100718.45;105314;280;38441;-73
2023/04/27 10:46:26;;;;;;;5.00;2.40;;;;;;;15.86;34.60;100721.17;105242;280;38308;-73
2023/04/27 10:49:00;;;;;;;5.50;2.40;;;;;;;15.67;34.18;100721.26;105322;280;38249;-73
2023/04/27 10:51:34;;;;;;;6.50;2.20;;;;;;;15.34;34.23;100731.45;105687;280;38435;-73
2023/04/27 10:54:08;;;;;;;4.90;2.30;;;;;;;14.98;34.52;100731.04;105294;280;39048;-73
2023/04/27 10:56:42;;;;;;;4.80;2.80;;;;;;;14.68;35.00;100735.33;105681;280;39896;-73
2023/04/27 10:59:16;;;;;;;5.10;2.20;;;;;;;14.37;35.31;100736.09;105698;280;38831;-73
2023/04/27 11:01:51;;;;;;;3.90;1.90;;;;;;;14.06;35.16;100739.66;105276;280;38510;-73
2023/04/27 11:04:27;;;;;;;4.80;2.00;;;;;;;13.79;35.08;100747.89;105290;280;38272;-73
2023/04/27 11:07:03;;;;;;;4.40;2.40;;;;;;;13.57;34.91;100752.07;105332;280;39447;-73
2023/04/27 11:09:39;;;;;;;4.60;2.50;;;;;;;13.34;34.59;100751.46;105277;280;39560;-73
2023/04/27 11:12:17;;;;;;;3.70;2.00;;;;;;;13.16;34.25;100757.34;105333;280;38549;-73
2023/04/27 11:14:51;;;;;;;4.80;2.30;;;;;;;12.94;34.69;100757.20;105239;280;40851;-73
2023/04/27 11:17:33;;;;;;;3.60;2.30;;;;;;;12.81;35.11;100759.45;105269;280;38848;-73
2023/04/27 11:20:09;;;;;;;5.70;2.30;;;;;;;12.72;35.40;100758.11;105721;280;38317;-73
2023/04/27 11:22:49;;;;;;;3.00;2.20;;;;;;;12.66;35.57;100755.52;105316;280;39386;-73
2023/04/27 11:25:31;;;;;;;3.20;1.90;;;;;;;12.66;35.76;100756.60;105328;280;39442;-73
2023/04/27 11:28:05;;;;;;;4.90;2.30;;;;;;;12.70;36.21;100753.45;105713;280;38800;-74
2023/04/27 11:30:39;;;;;;;4.80;2.10;;;;;;;12.75;36.19;100753.77;105726;280;38694;-73
2023/04/27 11:33:14;;;;;;;5.00;2.80;;;;;;;12.85;36.44;100753.67;105311;280;39415;-73
2023/04/27 11:35:48;;;;;;;3.00;1.70;;;;;;;13.01;36.52;100750.95;105297;280;38413;-73
2023/04/27 11:38:22;;;;;;;3.10;2.00;;;;;;;13.09;36.38;100746.02;105332;280;40119;-74
2023/04/27 11:41:05;;;;;;;5.20;2.20;;;;;;;13.19;36.62;100746.85;105294;280;39483;-73
2023/04/27 11:43:45;;;;;;;5.20;2.00;;;;;;;13.33;36.61;100744.88;105299;280;38695;-72
2023/04/27 11:46:21;;;;;;;3.40;2.30;;;;;;;13.49;36.16;100744.89;105304;280;38785;-72
2023/04/27 11:49:00;;;;;;;4.00;1.80;;;;;;;13.63;36.22;100741.43;105242;280;38708;-73
2023/04/27 11:51:34;;;;;;;3.40;2.10;;;;;;;13.84;36.22;100738.03;105273;280;38230;-73
2023/04/27 11:54:09;;;;;;;5.60;2.20;;;;;;;14.07;36.16;100736.27;105236;280;38256;-73
2023/04/27 11:56:45;;;;;;;3.30;2.00;;;;;;;14.23;35.69;100741.15;105083;281;39492;-73